createdAt,value
2023-05-17T00:01:11.832Z,9.70
2023-05-17T00:03:39.862Z,9.80
2023-05-17T00:06:08.132Z,9.80
2023-05-17T00:08:37.509Z,9.70
2023-05-17T00:11:05.421Z,9.60
2023-05-17T00:13:33.454Z,9.60
2023-05-17T00:16:01.351Z,9.60
2023-05-17T00:18:29.703Z,9.60
2023-05-17T00:20:57.864Z,9.60
2023-05-17T00:23:26.033Z,9.50
2023-05-17T00:25:55.390Z,9.50
2023-05-17T00:28:23.358Z,9.50
2023-05-17T00:30:51.461Z,9.50
2023-05-17T00:33:19.373Z,9.50
2023-05-17T00:35:47.572Z,9.50
2023-05-17T00:38:15.538Z,9.50
2023-05-17T00:40:43.548Z,9.40
2023-05-17T00:43:12.935Z,9.30
2023-05-17T00:45:40.919Z,9.30
2023-05-17T00:48:09.073Z,9.30
2023-05-17T00:50:37.412Z,9.40
2023-05-17T00:53:05.442Z,9.40
2023-05-17T00:55:34.002Z,9.40
2023-05-17T00:58:03.928Z,9.50
2023-05-17T01:00:33.759Z,9.50
2023-05-17T01:03:02.197Z,9.50
2023-05-17T01:05:31.205Z,9.50
2023-05-17T01:07:59.625Z,9.50
2023-05-17T01:10:36.767Z,9.40
2023-05-17T01:13:10.077Z,9.40
2023-05-17T01:15:47.091Z,9.40
2023-05-17T01:18:22.948Z,9.40
2023-05-17T01:20:53.884Z,9.40
2023-05-17T01:23:32.490Z,9.40
2023-05-17T01:26:08.694Z,9.40
2023-05-17T01:28:39.469Z,9.40
2023-05-17T01:31:09.608Z,9.30
2023-05-17T01:33:37.789Z,9.30
2023-05-17T01:36:06.771Z,9.40
2023-05-17T01:38:34.797Z,9.40
2023-05-17T01:41:09.200Z,9.40
2023-05-17T01:43:47.668Z,9.40
2023-05-17T01:46:26.658Z,9.40
2023-05-17T01:49:11.921Z,9.30
2023-05-17T01:51:48.560Z,9.30
2023-05-17T01:54:21.444Z,9.40
2023-05-17T01:56:53.347Z,9.40
2023-05-17T01:59:25.346Z,9.40
2023-05-17T02:01:56.797Z,9.40
2023-05-17T02:04:24.866Z,9.50
2023-05-17T02:06:52.987Z,9.60
2023-05-17T02:09:21.053Z,9.60
2023-05-17T02:11:49.287Z,9.60
2023-05-17T02:14:17.309Z,9.60
2023-05-17T02:16:46.822Z,9.50
2023-05-17T02:19:15.176Z,9.50
2023-05-17T02:21:43.485Z,9.50
2023-05-17T02:24:11.397Z,9.50
2023-05-17T02:26:42.846Z,9.60
2023-05-17T02:29:11.354Z,9.50
2023-05-17T02:31:39.319Z,9.60
2023-05-17T02:34:08.592Z,9.50
2023-05-17T02:36:36.554Z,9.40
2023-05-17T02:39:04.686Z,9.40
2023-05-17T02:41:32.686Z,9.30
2023-05-17T02:44:01.042Z,9.30
2023-05-17T02:46:29.215Z,9.20
2023-05-17T02:48:57.205Z,9.20
2023-05-17T02:51:26.864Z,9.20
2023-05-17T02:53:54.764Z,9.20
2023-05-17T02:56:22.719Z,9.20
2023-05-17T02:58:50.687Z,9.20
2023-05-17T03:01:18.561Z,9.20
2023-05-17T03:03:46.618Z,9.20
2023-05-17T03:06:16.944Z,9.30
2023-05-17T03:08:46.444Z,9.30
2023-05-17T03:11:14.603Z,9.30
2023-05-17T03:13:42.628Z,9.30
2023-05-17T03:16:10.722Z,9.30
2023-05-17T03:18:38.867Z,9.40
2023-05-17T03:21:07.052Z,9.40
2023-05-17T03:23:35.056Z,9.40
2023-05-17T03:26:04.502Z,9.40
2023-05-17T03:28:32.576Z,9.30
2023-05-17T03:31:00.750Z,9.30
2023-05-17T03:33:28.999Z,9.20
2023-05-17T03:35:56.960Z,9.30
2023-05-17T03:38:25.017Z,9.30
2023-05-17T03:40:53.292Z,9.30
2023-05-17T03:43:22.714Z,9.30
2023-05-17T03:45:50.789Z,9.20
2023-05-17T03:48:19.125Z,9.20
2023-05-17T03:50:47.282Z,9.10
2023-05-17T03:53:15.471Z,9.10
2023-05-17T03:55:44.048Z,9.10
2023-05-17T03:58:12.241Z,9.10
2023-05-17T04:00:42.101Z,9.00
2023-05-17T04:03:10.445Z,9.00
2023-05-17T04:05:38.792Z,9.00
2023-05-17T04:08:07.205Z,9.00
2023-05-17T04:10:35.598Z,8.90
2023-05-17T04:13:03.809Z,8.90
2023-05-17T04:15:32.119Z,8.90
2023-05-17T04:18:01.763Z,8.90
2023-05-17T04:20:30.044Z,9.00
2023-05-17T04:22:58.179Z,9.00
2023-05-17T04:25:26.382Z,9.00
2023-05-17T04:27:56.021Z,9.00
2023-05-17T04:30:25.095Z,9.10
2023-05-17T04:32:53.556Z,9.10
2023-05-17T04:35:23.223Z,9.10
2023-05-17T04:37:54.060Z,9.20
2023-05-17T04:40:22.433Z,9.20
2023-05-17T04:42:50.508Z,9.30
2023-05-17T04:45:18.889Z,9.40
2023-05-17T04:47:47.454Z,9.50
2023-05-17T04:50:16.033Z,9.50
2023-05-17T04:52:46.772Z,9.60
2023-05-17T04:55:15.138Z,9.70
2023-05-17T04:57:43.512Z,9.70
2023-05-17T05:00:15.154Z,9.90
2023-05-17T05:02:43.398Z,10.00
2023-05-17T05:05:13.184Z,10.00
2023-05-17T05:07:44.443Z,10.00
2023-05-17T05:10:14.693Z,10.10
2023-05-17T05:12:42.914Z,10.20
2023-05-17T05:15:15.034Z,10.30
2023-05-17T05:17:44.687Z,10.40
2023-05-17T05:20:13.322Z,10.50
2023-05-17T05:22:41.717Z,10.40
2023-05-17T05:25:14.927Z,10.40
2023-05-17T05:27:43.121Z,10.40
2023-05-17T05:30:12.655Z,10.40
2023-05-17T05:32:40.853Z,10.40
2023-05-17T05:35:09.794Z,10.40
2023-05-17T05:37:37.856Z,10.40
2023-05-17T05:40:10.190Z,10.50
2023-05-17T05:42:40.222Z,10.50
2023-05-17T05:45:09.472Z,10.60
2023-05-17T05:47:38.922Z,10.60
2023-05-17T05:50:08.450Z,10.70
2023-05-17T05:52:36.493Z,10.80
2023-05-17T05:55:04.867Z,10.70
2023-05-17T05:57:32.963Z,10.80
2023-05-17T06:00:02.588Z,10.80
2023-05-17T06:02:30.746Z,10.90
2023-05-17T06:04:58.930Z,10.90
2023-05-17T06:07:27.358Z,11.00
2023-05-17T06:09:55.519Z,11.00
2023-05-17T06:12:23.612Z,11.00
2023-05-17T06:14:51.625Z,10.90
2023-05-17T06:17:21.416Z,10.90
2023-05-17T06:19:50.332Z,11.00
2023-05-17T06:22:18.395Z,11.10
2023-05-17T06:24:46.599Z,11.20
2023-05-17T06:27:14.715Z,11.20
2023-05-17T06:30:40.661Z,11.30
2023-05-17T06:33:14.223Z,11.30
2023-05-17T06:38:22.578Z,11.50
2023-05-17T06:40:53.263Z,11.40
2023-05-17T06:43:21.306Z,11.50
2023-05-17T06:45:49.698Z,11.70
2023-05-17T06:48:19.228Z,11.70
2023-05-17T06:50:47.378Z,11.70
2023-05-17T06:53:15.622Z,11.70
2023-05-17T06:55:43.598Z,11.80
2023-05-17T06:58:11.776Z,11.90
2023-05-17T07:00:39.924Z,11.90
2023-05-17T07:03:07.933Z,11.90
2023-05-17T07:05:40.435Z,11.80
2023-05-17T07:08:08.264Z,11.90
2023-05-17T07:10:36.277Z,11.90
2023-05-17T07:13:04.301Z,11.90
2023-05-17T07:15:32.376Z,11.90
2023-05-17T07:18:00.904Z,12.00
2023-05-17T07:20:28.993Z,12.10
2023-05-17T07:22:58.395Z,12.20
2023-05-17T07:25:26.437Z,12.20
2023-05-17T07:27:54.429Z,12.20
2023-05-17T07:30:22.389Z,12.30
2023-05-17T07:32:50.538Z,12.40
2023-05-17T07:35:20.957Z,12.40
2023-05-17T07:37:49.949Z,12.60
2023-05-17T07:40:19.669Z,12.70
2023-05-17T07:42:47.628Z,12.80
2023-05-17T07:45:15.756Z,12.90
2023-05-17T07:47:43.839Z,13.10
2023-05-17T07:50:12.742Z,13.00
2023-05-17T07:52:40.796Z,13.00
2023-05-17T07:55:09.899Z,13.10
2023-05-17T07:57:39.401Z,13.00
2023-05-17T08:00:12.528Z,13.00
2023-05-17T08:02:41.150Z,13.00
2023-05-17T08:05:10.099Z,13.10
2023-05-17T08:07:38.303Z,13.20
2023-05-17T08:10:07.358Z,13.20
2023-05-17T08:12:35.518Z,13.30
2023-05-17T08:15:05.482Z,13.50
2023-05-17T08:17:33.730Z,13.80
2023-05-17T08:20:03.712Z,14.00
2023-05-17T08:22:31.675Z,14.20
2023-05-17T08:24:59.699Z,14.40
2023-05-17T08:27:27.743Z,14.60
2023-05-17T08:30:06.972Z,14.60
2023-05-17T08:32:38.554Z,14.80
2023-05-17T08:35:07.542Z,15.10
2023-05-17T08:37:35.494Z,14.90
2023-05-17T08:40:03.603Z,15.00
2023-05-17T08:42:31.764Z,15.10
2023-05-17T08:45:00.342Z,15.10
2023-05-17T08:47:34.055Z,15.20
2023-05-17T08:50:05.820Z,15.30
2023-05-17T08:52:34.193Z,15.20
2023-05-17T08:55:02.594Z,14.90
2023-05-17T08:57:32.539Z,14.70
2023-05-17T09:00:01.385Z,14.30
2023-05-17T09:02:31.689Z,14.30
2023-05-17T09:05:00.112Z,14.40
2023-05-17T09:07:29.562Z,14.50
2023-05-17T09:09:58.375Z,14.40
2023-05-17T09:12:26.390Z,14.50
2023-05-17T09:14:54.344Z,14.40
2023-05-17T09:17:23.096Z,14.50
2023-05-17T09:19:51.896Z,14.70
2023-05-17T09:22:20.620Z,15.00
2023-05-17T09:24:51.245Z,15.10
2023-05-17T09:27:19.753Z,15.10
2023-05-17T09:29:48.388Z,15.00
2023-05-17T09:32:17.941Z,14.80
2023-05-17T09:34:48.360Z,15.00
2023-05-17T09:37:17.620Z,15.20
2023-05-17T09:39:47.421Z,15.00
2023-05-17T09:42:17.736Z,14.90
2023-05-17T09:44:54.881Z,14.90
2023-05-17T09:47:24.859Z,14.70
2023-05-17T09:49:53.227Z,14.70
2023-05-17T09:52:22.337Z,14.70
2023-05-17T09:54:54.728Z,14.90
2023-05-17T09:57:25.839Z,15.00
2023-05-17T09:59:56.728Z,15.00
2023-05-17T10:02:28.561Z,15.00
2023-05-17T10:04:58.278Z,15.00
2023-05-17T10:07:27.860Z,14.80
2023-05-17T10:09:57.452Z,14.70
2023-05-17T10:12:29.975Z,14.60
2023-05-17T10:15:00.244Z,14.60
2023-05-17T10:17:30.531Z,14.50
2023-05-17T10:19:59.223Z,14.60
2023-05-17T10:22:29.199Z,14.90
2023-05-17T10:24:58.520Z,15.10
2023-05-17T10:27:29.549Z,15.10
2023-05-17T10:29:59.171Z,15.30
2023-05-17T10:32:29.950Z,15.30
2023-05-17T10:35:10.140Z,15.40
2023-05-17T10:37:40.065Z,15.50
2023-05-17T10:40:13.000Z,15.70
2023-05-17T10:42:43.670Z,16.10
2023-05-17T10:45:13.781Z,16.30
2023-05-17T10:47:43.005Z,16.40
2023-05-17T10:50:13.307Z,16.40
2023-05-17T10:52:48.201Z,16.30
2023-05-17T10:55:20.792Z,16.30
2023-05-17T10:58:10.025Z,16.30
2023-05-17T11:00:41.249Z,16.50
2023-05-17T11:03:13.947Z,16.70
2023-05-17T11:05:45.516Z,16.80
2023-05-17T11:08:15.782Z,16.50
2023-05-17T11:11:11.382Z,16.50
2023-05-17T11:13:52.089Z,16.50
2023-05-17T11:16:23.684Z,16.60
2023-05-17T11:18:53.551Z,16.70
2023-05-17T11:21:22.888Z,16.60
2023-05-17T11:24:01.283Z,16.50
2023-05-17T11:26:44.613Z,16.50
2023-05-17T11:29:14.610Z,16.60
2023-05-17T11:31:45.835Z,17.10
2023-05-17T11:34:13.945Z,18.70
2023-05-17T11:36:52.237Z,20.00
2023-05-17T11:39:24.011Z,21.50
2023-05-17T11:41:54.008Z,22.90
2023-05-17T11:44:30.686Z,22.00
2023-05-17T11:47:03.915Z,22.00
2023-05-17T11:49:36.396Z,21.20
2023-05-17T11:52:06.201Z,20.50
2023-05-17T11:54:34.646Z,20.10
2023-05-17T11:57:03.616Z,19.20
2023-05-17T11:59:39.788Z,18.30
2023-05-17T12:02:08.225Z,18.00
2023-05-17T12:04:38.625Z,17.50
2023-05-17T12:07:09.367Z,17.40
2023-05-17T12:09:38.039Z,17.80
2023-05-17T12:12:08.776Z,18.50
2023-05-17T12:14:38.808Z,19.30
2023-05-17T12:17:09.899Z,19.20
2023-05-17T12:19:38.426Z,18.50
2023-05-17T12:22:12.499Z,18.10
2023-05-17T12:24:42.229Z,18.00
2023-05-17T12:27:11.288Z,17.70
2023-05-17T12:29:41.277Z,17.90
2023-05-17T12:32:11.288Z,19.40
2023-05-17T12:34:40.806Z,20.30
2023-05-17T12:37:10.880Z,19.80
2023-05-17T12:39:39.400Z,19.30
2023-05-17T12:42:08.575Z,18.60
2023-05-17T12:44:37.171Z,19.40
2023-05-17T12:47:07.011Z,20.70
2023-05-17T12:49:40.136Z,22.00
2023-05-17T12:52:08.814Z,23.00
2023-05-17T12:54:37.159Z,23.30
2023-05-17T12:57:13.848Z,22.30
2023-05-17T12:59:49.159Z,20.70
2023-05-17T13:02:20.352Z,19.90
2023-05-17T13:04:48.646Z,21.00
2023-05-17T13:07:23.973Z,22.40
2023-05-17T13:09:53.457Z,22.50
2023-05-17T13:12:23.229Z,23.60
2023-05-17T13:14:53.376Z,24.50
2023-05-17T13:17:27.418Z,23.80
2023-05-17T13:19:57.408Z,21.90
2023-05-17T13:22:26.335Z,21.00
2023-05-17T13:24:55.042Z,20.50
2023-05-17T13:27:23.128Z,20.00
2023-05-17T13:29:51.294Z,20.30
2023-05-17T13:32:26.175Z,20.60
2023-05-17T13:34:54.451Z,20.80
2023-05-17T13:37:22.625Z,21.90
2023-05-17T13:39:51.025Z,22.40
2023-05-17T13:42:19.145Z,23.40
2023-05-17T13:44:47.163Z,23.60
2023-05-17T13:47:15.553Z,22.80
2023-05-17T13:49:44.990Z,22.10
2023-05-17T13:52:13.394Z,22.10
2023-05-17T13:54:41.482Z,22.10
2023-05-17T13:57:09.666Z,21.50
2023-05-17T13:59:37.762Z,21.20
2023-05-17T14:02:05.978Z,21.50
2023-05-17T14:04:34.974Z,22.00
2023-05-17T14:07:05.183Z,22.90
2023-05-17T14:09:34.497Z,23.10
2023-05-17T14:12:03.005Z,22.70
2023-05-17T14:14:31.451Z,22.20
2023-05-17T14:17:01.456Z,21.60
2023-05-17T14:19:29.547Z,21.10
2023-05-17T14:21:57.794Z,20.90
2023-05-17T14:24:27.123Z,20.70
2023-05-17T14:26:55.252Z,20.40
2023-05-17T14:29:47.920Z,20.60
2023-05-17T14:32:38.544Z,20.40
2023-05-17T14:35:08.280Z,20.30
2023-05-17T14:37:36.492Z,20.20
2023-05-17T14:40:07.184Z,19.70
2023-05-17T14:42:35.249Z,19.50
2023-05-17T14:45:03.170Z,19.20
2023-05-17T14:47:31.193Z,19.00
2023-05-17T14:49:59.182Z,19.00
2023-05-17T14:52:27.215Z,18.80
2023-05-17T14:54:55.201Z,18.80
2023-05-17T14:57:24.639Z,18.60
2023-05-17T14:59:52.700Z,18.60
2023-05-17T15:02:20.799Z,18.40
2023-05-17T15:04:51.480Z,18.10
2023-05-17T15:07:19.964Z,17.90
2023-05-17T15:09:48.389Z,17.80
2023-05-17T15:12:19.009Z,17.70
2023-05-17T15:14:51.298Z,17.70
2023-05-17T15:17:19.702Z,17.50
2023-05-17T15:19:47.917Z,17.30
2023-05-17T15:22:16.647Z,17.40
2023-05-17T15:24:45.970Z,17.40
2023-05-17T15:27:16.418Z,17.40
2023-05-17T15:29:44.993Z,17.20
2023-05-17T15:32:14.639Z,17.20
2023-05-17T15:34:42.659Z,17.40
2023-05-17T15:37:10.689Z,17.50
2023-05-17T15:39:38.751Z,17.60
2023-05-17T15:42:07.150Z,17.80
2023-05-17T15:44:35.239Z,18.00
2023-05-17T15:47:03.666Z,18.30
2023-05-17T15:49:33.587Z,18.50
2023-05-17T15:52:02.093Z,18.50
2023-05-17T15:54:30.375Z,18.30
2023-05-17T15:56:58.520Z,18.10
2023-05-17T15:59:26.560Z,18.00
2023-05-17T16:01:54.686Z,18.00
2023-05-17T16:04:22.818Z,18.00
2023-05-17T16:06:52.630Z,18.10
2023-05-17T16:09:20.659Z,18.20
2023-05-17T16:11:48.760Z,18.10
2023-05-17T16:14:17.626Z,18.00
2023-05-17T16:16:45.812Z,18.20
2023-05-17T16:19:14.040Z,18.40
2023-05-17T16:21:42.255Z,18.50
2023-05-17T16:24:11.888Z,18.80
2023-05-17T16:26:39.964Z,18.90
2023-05-17T16:29:07.929Z,19.10
2023-05-17T16:31:36.273Z,19.10
2023-05-17T16:34:04.456Z,19.10
2023-05-17T16:36:33.881Z,19.20
2023-05-17T16:39:01.804Z,19.10
2023-05-17T16:41:33.528Z,18.90
2023-05-17T16:44:01.479Z,18.70
2023-05-17T16:46:29.386Z,18.70
2023-05-17T16:48:57.279Z,18.90
2023-05-17T16:51:25.289Z,18.90
2023-05-17T16:53:53.240Z,18.90
2023-05-17T16:56:22.318Z,18.80
2023-05-17T16:58:52.226Z,18.80
2023-05-17T17:01:20.265Z,18.90
2023-05-17T17:03:48.365Z,18.80
2023-05-17T17:06:16.487Z,18.50
2023-05-17T17:08:44.413Z,18.40
2023-05-17T17:11:12.310Z,18.40
2023-05-17T17:13:41.293Z,18.40
2023-05-17T17:16:10.912Z,18.40
2023-05-17T17:18:38.878Z,18.40
2023-05-17T17:21:08.012Z,18.30
2023-05-17T17:23:36.590Z,18.40
2023-05-17T17:26:04.626Z,18.40
2023-05-17T17:28:32.561Z,18.40
2023-05-17T17:31:00.460Z,18.20
2023-05-17T17:33:29.890Z,18.20
2023-05-17T17:35:57.905Z,18.10
2023-05-17T17:38:26.041Z,18.10
2023-05-17T17:40:53.933Z,18.10
2023-05-17T17:43:22.330Z,18.30
2023-05-17T17:45:50.252Z,18.30
2023-05-17T17:48:18.230Z,18.50
2023-05-17T17:50:47.564Z,18.30
2023-05-17T17:53:15.836Z,18.30
2023-05-17T17:55:43.984Z,18.30
2023-05-17T17:58:11.930Z,18.10
2023-05-17T18:00:39.903Z,17.70
2023-05-17T18:03:08.161Z,17.30
2023-05-17T18:05:36.274Z,17.00
2023-05-17T18:08:06.157Z,16.90
2023-05-17T18:10:34.249Z,16.80
2023-05-17T18:13:02.264Z,16.60
2023-05-17T18:15:30.344Z,16.60
2023-05-17T18:17:58.645Z,16.60
2023-05-17T18:20:27.345Z,16.40
2023-05-17T18:22:55.597Z,16.30
2023-05-17T18:25:25.251Z,16.30
2023-05-17T18:27:53.306Z,16.20
2023-05-17T18:30:21.407Z,16.10
2023-05-17T18:32:49.440Z,16.20
2023-05-17T18:35:17.496Z,16.10
2023-05-17T18:37:45.549Z,16.10
2023-05-17T18:40:16.114Z,16.00
2023-05-17T18:42:45.559Z,16.00
2023-05-17T18:45:13.583Z,15.90
2023-05-17T18:47:41.570Z,15.80
2023-05-17T18:50:10.253Z,15.80
2023-05-17T18:52:38.307Z,15.70
2023-05-17T18:55:07.141Z,15.70
2023-05-17T18:57:35.256Z,15.50
2023-05-17T19:00:05.276Z,15.50
2023-05-17T19:02:33.383Z,15.50
2023-05-17T19:05:01.486Z,15.50
2023-05-17T19:07:29.571Z,15.40
2023-05-17T19:09:57.608Z,15.40
2023-05-17T19:12:25.719Z,15.40
2023-05-17T19:14:53.829Z,15.40
2023-05-17T19:17:23.567Z,15.30
2023-05-17T19:19:51.659Z,15.30
2023-05-17T19:22:19.779Z,15.20
2023-05-17T19:24:47.775Z,15.20
2023-05-17T19:27:19.388Z,15.20
2023-05-17T19:29:47.444Z,15.10
2023-05-17T19:32:15.711Z,15.10
2023-05-17T19:34:45.175Z,15.10
2023-05-17T19:37:13.160Z,15.00
2023-05-17T19:39:41.190Z,15.00
2023-05-17T19:42:09.291Z,15.00
2023-05-17T19:44:37.277Z,15.00
2023-05-17T19:47:05.546Z,15.00
2023-05-17T19:49:33.472Z,15.00
2023-05-17T19:52:02.888Z,14.90
2023-05-17T19:54:31.295Z,14.90
2023-05-17T19:56:59.742Z,14.90
2023-05-17T19:59:27.741Z,14.80
2023-05-17T20:01:56.031Z,14.80
2023-05-17T20:04:24.071Z,14.80
2023-05-17T20:06:52.305Z,14.70
2023-05-17T20:09:21.674Z,14.70
2023-05-17T20:11:49.667Z,14.70
2023-05-17T20:14:17.652Z,14.70
2023-05-17T20:16:45.824Z,14.60
2023-05-17T20:19:14.033Z,14.60
2023-05-17T20:21:42.184Z,14.50
2023-05-17T20:24:10.231Z,14.50
2023-05-17T20:26:39.802Z,14.50
2023-05-17T20:29:09.285Z,14.40
2023-05-17T20:31:37.823Z,14.40
2023-05-17T20:34:06.400Z,14.40
2023-05-17T20:36:34.444Z,14.30
2023-05-17T20:39:02.376Z,14.30
2023-05-17T20:41:30.384Z,14.20
2023-05-17T20:43:59.669Z,14.10
2023-05-17T20:46:29.930Z,14.10
2023-05-17T20:48:58.099Z,14.00
2023-05-17T20:51:27.065Z,13.90
2023-05-17T20:53:55.370Z,13.90
2023-05-17T20:56:23.335Z,13.80
2023-05-17T20:58:51.328Z,13.80
2023-05-17T21:01:20.785Z,13.70
2023-05-17T21:03:51.172Z,13.70
2023-05-17T21:06:19.373Z,13.60
2023-05-17T21:08:47.542Z,13.60
2023-05-17T21:11:20.910Z,13.50
2023-05-17T21:13:49.001Z,13.50
2023-05-17T21:16:17.125Z,13.40
2023-05-17T21:18:46.594Z,13.40
2023-05-17T21:21:14.683Z,13.40
2023-05-17T21:23:42.684Z,13.40
2023-05-17T21:26:11.108Z,13.30
2023-05-17T21:28:39.114Z,13.30
2023-05-17T21:31:07.286Z,13.20
2023-05-17T21:33:35.524Z,13.20
2023-05-17T21:36:05.214Z,13.10
2023-05-17T21:38:33.213Z,13.10
2023-05-17T21:41:01.136Z,13.10
2023-05-17T21:43:29.097Z,13.00
2023-05-17T21:45:57.033Z,13.00
2023-05-17T21:48:25.361Z,12.90
2023-05-17T21:50:53.231Z,12.80
2023-05-17T21:53:22.661Z,12.80
2023-05-17T21:56:01.434Z,12.80
2023-05-17T21:58:31.635Z,12.80
2023-05-17T22:00:59.709Z,12.70
2023-05-17T22:03:27.798Z,12.70
2023-05-17T22:05:55.808Z,12.60
2023-05-17T22:08:25.172Z,12.50
2023-05-17T22:10:54.340Z,12.50
2023-05-17T22:13:26.075Z,12.50
2023-05-17T22:15:57.812Z,12.50
2023-05-17T22:18:26.747Z,12.40
2023-05-17T22:20:59.194Z,12.30
2023-05-17T22:23:28.862Z,12.30
2023-05-17T22:26:00.224Z,12.30
2023-05-17T22:28:28.624Z,12.20
2023-05-17T22:30:56.868Z,12.20
2023-05-17T22:33:25.036Z,12.10
2023-05-17T22:35:54.253Z,12.10
2023-05-17T22:38:23.307Z,12.00
2023-05-17T22:40:52.886Z,12.00
2023-05-17T22:43:22.264Z,12.00
2023-05-17T22:45:51.131Z,12.00
2023-05-17T22:48:20.962Z,11.90
2023-05-17T22:50:49.113Z,11.90
2023-05-17T22:53:18.658Z,11.90
2023-05-17T22:55:48.893Z,11.90
2023-05-17T22:58:18.715Z,11.90
2023-05-17T23:00:46.974Z,11.90
2023-05-17T23:03:15.257Z,11.80
2023-05-17T23:05:45.468Z,11.70
2023-05-17T23:08:15.446Z,11.70
2023-05-17T23:10:46.143Z,11.60
2023-05-17T23:13:14.556Z,11.60
2023-05-17T23:15:46.841Z,11.60
2023-05-17T23:18:16.044Z,11.60
2023-05-17T23:20:44.127Z,11.50
2023-05-17T23:23:13.297Z,11.30
2023-05-17T23:25:41.311Z,11.10
2023-05-17T23:28:09.712Z,11.00
2023-05-17T23:30:38.517Z,10.80
2023-05-17T23:33:08.275Z,10.70
2023-05-17T23:35:36.546Z,10.60
2023-05-17T23:38:07.145Z,10.50
2023-05-17T23:40:37.085Z,10.50
2023-05-17T23:43:05.850Z,10.50
2023-05-17T23:45:34.303Z,10.40
2023-05-17T23:48:02.436Z,10.30
2023-05-17T23:50:31.995Z,10.30
2023-05-17T23:53:03.377Z,10.20
2023-05-17T23:55:31.712Z,10.20
2023-05-17T23:57:59.788Z,10.20
